X  Chiuso Dati meteorologici dell'aviazione (METAR)     LICC Catania-Fontanarossa Airport
Temperatura
18°C Temperatura
7°C Punto di rugiada
49% Umidità



Vento
4 Knots
10 MPH
16 KM/O
9 KTS



250°
OSO
Condizioni attuali

Parzialmente nuvoloso Parzialmente nuvoloso
Pressione 1010.84 (hPa) - 29.85 (inHg)
Visibilità 6 (miglio) - 9.7 (km)
Aeroporto
Codice-Aeroporto LICC

Posizione: Catania-Fontanarossa Airport
Distanza: 98 (km)

Metar:
LICC 250920Z 25009KT 210V280 9999 FEW050 18/07 Q1011

Ore: 25-04-2024 11:20 CEST